Time;durP1;ratioP1;P1;durP2;ratioP2;P2;SDS_P1;SDS_P2;PMS_P1;PMS_P2;Temp;Humidity;BMP_temperature;BMP_pressure;BME280_temperature;BME280_humidity;BME280_pressure;Samples;Min_cycle;Max_cycle;Signal;HPM_P1;HPM_P2
2022/08/05 00:02:19;;;;;;;6.53;3.40;;;;;;;;;;5065724;28;20024;-69
2022/08/05 00:05:05;;;;;;;4.90;2.88;;;;;;;;;;5067607;28;20020;-68
2022/08/05 00:07:50;;;;;;;5.20;3.33;;;;;;;;;;5070371;28;20020;-63
2022/08/05 00:10:36;;;;;;;6.32;3.33;;;;;;;;;;5058580;28;20078;-68
2022/08/05 00:13:21;;;;;;;3.78;3.20;;;;;;;;;;5063527;28;20030;-68
2022/08/05 00:16:08;;;;;;;6.75;3.50;;;;;;;;;;5066127;28;20590;-68
2022/08/05 00:18:54;;;;;;;5.15;3.22;;;;;;;;;;5068973;28;20036;-68
2022/08/05 00:21:39;;;;;;;5.95;3.65;;;;;;;;;;5059571;28;20024;-68
2022/08/05 00:24:25;;;;;;;6.13;3.58;;;;;;;;;;5069447;28;20028;-69
2022/08/05 00:27:11;;;;;;;10.32;3.67;;;;;;;;;;5067537;28;20090;-63
2022/08/05 00:29:56;;;;;;;5.35;3.15;;;;;;;;;;5067816;28;20490;-65
2022/08/05 00:32:42;;;;;;;5.47;3.03;;;;;;;;;;5070532;28;20021;-62
2022/08/05 00:35:27;;;;;;;5.40;3.03;;;;;;;;;;5064251;28;20054;-61
2022/08/05 00:38:13;;;;;;;5.32;3.28;;;;;;;;;;5056502;28;20565;-62
2022/08/05 00:40:59;;;;;;;4.88;3.30;;;;;;;;;;5061997;28;20024;-62
2022/08/05 00:43:45;;;;;;;4.75;3.40;;;;;;;;;;5064710;28;20475;-63
2022/08/05 00:46:31;;;;;;;5.53;3.00;;;;;;;;;;5067812;28;20035;-63
2022/08/05 00:49:18;;;;;;;6.78;3.40;;;;;;;;;;5067682;28;20445;-64
2022/08/05 00:52:04;;;;;;;6.43;3.55;;;;;;;;;;5063866;28;20080;-63
2022/08/05 00:54:50;;;;;;;4.63;2.90;;;;;;;;;;5058581;28;20017;-64
2022/08/05 00:57:35;;;;;;;4.45;3.13;;;;;;;;;;5066731;28;20093;-63
2022/08/05 01:00:21;;;;;;;5.78;3.28;;;;;;;;;;5066442;28;20024;-65
2022/08/05 01:03:06;;;;;;;5.80;3.00;;;;;;;;;;5066034;28;20028;-59
2022/08/05 01:05:52;;;;;;;7.22;3.30;;;;;;;;;;5065180;28;20082;-67
2022/08/05 01:08:37;;;;;;;5.03;2.83;;;;;;;;;;5069472;28;20067;-68
2022/08/05 01:11:26;;;;;;;6.03;2.80;;;;;;;;;;5063913;28;20059;-69
2022/08/05 01:14:17;;;;;;;6.35;2.70;;;;;;;;;;5068026;28;20104;-69
2022/08/05 01:17:21;;;;;;;7.75;2.88;;;;;;;;;;5067033;28;20105;-69
2022/08/05 01:20:13;;;;;;;9.20;2.58;;;;;;;;;;5059332;28;20025;-68
2022/08/05 01:23:20;;;;;;;6.32;2.60;;;;;;;;;;5068821;28;20063;-66
2022/08/05 01:26:25;;;;;;;6.88;2.53;;;;;;;;;;5068463;28;20029;-63
2022/08/05 01:29:19;;;;;;;7.80;2.60;;;;;;;;;;5067792;28;20422;-63
2022/08/05 01:32:06;;;;;;;6.07;2.65;;;;;;;;;;5064958;28;20036;-63
2022/08/05 01:34:55;;;;;;;7.53;2.78;;;;;;;;;;5064121;28;20391;-63
2022/08/05 01:37:41;;;;;;;;;;;;;;;;;;5066575;28;20552;-62
2022/08/05 01:40:28;;;;;;;8.27;2.38;;;;;;;;;;5068808;28;19908;-67
2022/08/05 01:43:14;;;;;;;4.28;2.28;;;;;;;;;;5063721;28;20025;-62
2022/08/05 01:46:00;;;;;;;6.28;2.47;;;;;;;;;;5065708;28;20107;-63
2022/08/05 01:48:46;;;;;;;4.75;2.28;;;;;;;;;;5064533;28;20060;-62
2022/08/05 01:51:34;;;;;;;5.10;2.20;;;;;;;;;;5065951;28;20048;-63
2022/08/05 01:54:20;;;;;;;8.27;2.58;;;;;;;;;;5060709;28;20039;-63
2022/08/05 01:57:07;;;;;;;3.65;2.40;;;;;;;;;;5066802;28;20414;-64
2022/08/05 01:59:56;;;;;;;7.88;2.50;;;;;;;;;;5069877;28;20037;-69
2022/08/05 02:02:51;;;;;;;6.63;3.10;;;;;;;;;;5069070;28;20032;-74
2022/08/05 02:05:37;;;;;;;4.40;2.55;;;;;;;;;;5068585;28;20024;-74
2022/08/05 02:08:22;;;;;;;4.90;2.85;;;;;;;;;;5065607;28;20021;-74
2022/08/05 02:11:10;;;;;;;4.65;2.40;;;;;;;;;;5065982;28;20115;-74
2022/08/05 02:13:59;;;;;;;9.77;3.22;;;;;;;;;;5065015;28;20103;-74
2022/08/05 02:16:50;;;;;;;5.70;2.40;;;;;;;;;;5064260;28;20020;-61
2022/08/05 02:19:37;;;;;;;8.50;2.60;;;;;;;;;;5066852;28;20522;-61
2022/08/05 02:22:22;;;;;;;3.47;2.70;;;;;;;;;;5071007;28;20032;-61
2022/08/05 02:25:12;;;;;;;7.80;3.03;;;;;;;;;;5070063;28;20052;-61
2022/08/05 02:27:58;;;;;;;9.85;2.97;;;;;;;;;;5071523;28;20020;-60
2022/08/05 02:30:46;;;;;;;6.07;2.65;;;;;;;;;;5070146;28;20028;-60
2022/08/05 02:33:36;;;;;;;7.60;2.53;;;;;;;;;;5069873;28;20025;-61
2022/08/05 02:36:22;;;;;;;13.45;3.13;;;;;;;;;;5073382;28;20056;-67
2022/08/05 02:39:11;;;;;;;8.15;2.60;;;;;;;;;;5072566;28;20503;-65
2022/08/05 02:41:57;;;;;;;5.13;2.33;;;;;;;;;;5066546;28;20087;-61
2022/08/05 02:44:43;;;;;;;5.93;2.47;;;;;;;;;;5071451;28;20472;-61
2022/08/05 02:47:30;;;;;;;6.65;2.67;;;;;;;;;;5070506;28;20040;-63
2022/08/05 02:50:16;;;;;;;5.70;2.13;;;;;;;;;;5068215;28;20108;-61
2022/08/05 02:53:02;;;;;;;11.73;2.80;;;;;;;;;;5071799;28;20028;-69
2022/08/05 02:55:48;;;;;;;7.22;2.72;;;;;;;;;;5069572;28;20032;-63
2022/08/05 02:58:35;;;;;;;6.03;2.22;;;;;;;;;;5071597;28;20497;-61
2022/08/05 03:01:24;;;;;;;9.55;2.90;;;;;;;;;;5067648;28;20021;-62
2022/08/05 03:04:11;;;;;;;7.97;2.92;;;;;;;;;;5067628;28;20033;-64
2022/08/05 03:06:57;;;;;;;5.45;2.80;;;;;;;;;;5068470;28;20032;-62
2022/08/05 03:09:44;;;;;;;5.30;2.70;;;;;;;;;;5071989;28;20365;-62
2022/08/05 03:12:33;;;;;;;4.97;2.72;;;;;;;;;;5060172;28;20025;-67
2022/08/05 03:15:19;;;;;;;7.95;3.00;;;;;;;;;;5062493;28;20039;-68
2022/08/05 03:18:04;;;;;;;5.05;2.47;;;;;;;;;;5069328;28;20040;-68
2022/08/05 03:20:50;;;;;;;5.32;2.63;;;;;;;;;;5068366;28;20398;-69
2022/08/05 03:23:37;;;;;;;6.07;2.78;;;;;;;;;;5069469;28;20032;-68
2022/08/05 03:26:22;;;;;;;3.47;2.70;;;;;;;;;;5070311;28;20018;-68
2022/08/05 03:29:08;;;;;;;4.95;2.63;;;;;;;;;;5070018;28;20028;-69
2022/08/05 03:31:54;;;;;;;4.45;2.53;;;;;;;;;;5065980;28;20051;-62
2022/08/05 03:34:40;;;;;;;10.68;2.72;;;;;;;;;;5064572;28;20050;-60
2022/08/05 03:37:26;;;;;;;10.02;2.83;;;;;;;;;;5068628;28;20553;-60
2022/08/05 03:40:11;;;;;;;7.15;2.90;;;;;;;;;;5055990;28;20050;-60
2022/08/05 03:42:57;;;;;;;7.63;3.05;;;;;;;;;;5063834;28;20468;-60
2022/08/05 03:45:43;;;;;;;8.43;2.78;;;;;;;;;;5065542;28;20017;-60
2022/08/05 03:48:28;;;;;;;6.93;3.15;;;;;;;;;;5068991;28;20234;-67
2022/08/05 03:51:16;;;;;;;6.97;2.83;;;;;;;;;;5066628;28;20055;-65
2022/08/05 03:54:05;;;;;;;7.35;2.78;;;;;;;;;;5068962;28;20040;-70
2022/08/05 03:56:51;;;;;;;7.50;2.88;;;;;;;;;;5067770;28;20029;-68
2022/08/05 03:59:40;;;;;;;5.43;2.65;;;;;;;;;;5065684;28;20039;-69
2022/08/05 04:02:28;;;;;;;4.88;2.83;;;;;;;;;;5067288;28;20024;-72
2022/08/05 04:05:15;;;;;;;7.85;3.00;;;;;;;;;;5062473;28;20108;-68
2022/08/05 04:08:03;;;;;;;3.88;2.67;;;;;;;;;;5069542;28;20094;-61
2022/08/05 04:10:49;;;;;;;5.72;3.03;;;;;;;;;;5057674;28;20024;-72
2022/08/05 04:13:37;;;;;;;7.70;3.05;;;;;;;;;;5062546;28;20423;-74
2022/08/05 04:16:23;;;;;;;3.97;2.57;;;;;;;;;;5068857;28;20107;-73
2022/08/05 04:19:12;;;;;;;6.25;3.03;;;;;;;;;;5069975;28;20082;-73
2022/08/05 04:21:57;;;;;;;8.20;3.33;;;;;;;;;;5070158;28;20012;-73
2022/08/05 04:24:44;;;;;;;7.40;3.20;;;;;;;;;;5059015;28;20086;-73
2022/08/05 04:27:30;;;;;;;5.15;2.92;;;;;;;;;;5060286;28;20020;-66
2022/08/05 04:30:16;;;;;;;9.95;2.60;;;;;;;;;;5068350;28;20086;-59
2022/08/05 04:33:01;;;;;;;10.43;3.53;;;;;;;;;;5065042;28;20024;-62
2022/08/05 04:35:47;;;;;;;8.02;2.83;;;;;;;;;;5064367;28;20476;-60
2022/08/05 04:38:32;;;;;;;8.23;3.05;;;;;;;;;;5067090;28;20048;-59
2022/08/05 04:41:18;;;;;;;5.82;3.20;;;;;;;;;;5061033;28;20396;-60
2022/08/05 04:44:03;;;;;;;7.28;2.92;;;;;;;;;;5064301;28;20034;-60
2022/08/05 04:46:49;;;;;;;8.50;3.90;;;;;;;;;;5066327;28;20444;-67
2022/08/05 04:49:34;;;;;;;6.05;2.80;;;;;;;;;;5069886;28;20033;-69
2022/08/05 04:52:20;;;;;;;7.40;3.47;;;;;;;;;;5070510;28;20040;-68
2022/08/05 04:55:06;;;;;;;8.75;3.20;;;;;;;;;;5069731;28;20020;-68
2022/08/05 04:57:51;;;;;;;8.43;3.17;;;;;;;;;;5066876;28;20120;-67
2022/08/05 05:00:37;;;;;;;4.55;2.40;;;;;;;;;;5070143;28;20124;-68
2022/08/05 05:03:23;;;;;;;4.80;2.65;;;;;;;;;;5067320;28;20055;-61
2022/08/05 05:06:09;;;;;;;8.70;3.25;;;;;;;;;;5070645;28;20021;-73
2022/08/05 05:08:54;;;;;;;8.23;3.30;;;;;;;;;;5066741;28;20024;-74
2022/08/05 05:11:40;;;;;;;5.30;2.90;;;;;;;;;;5055736;28;20012;-74
2022/08/05 05:14:26;;;;;;;9.02;3.20;;;;;;;;;;5061820;28;20502;-73
2022/08/05 05:17:11;;;;;;;9.85;3.28;;;;;;;;;;5064682;28;20028;-75
2022/08/05 05:19:57;;;;;;;8.40;3.60;;;;;;;;;;5067546;28;20027;-73
2022/08/05 05:22:42;;;;;;;7.05;3.30;;;;;;;;;;5063534;28;20714;-66
2022/08/05 05:25:28;;;;;;;6.43;3.03;;;;;;;;;;5066723;28;20021;-73
2022/08/05 05:28:13;;;;;;;7.07;2.85;;;;;;;;;;5069115;28;20050;-75
2022/08/05 05:30:59;;;;;;;7.20;3.50;;;;;;;;;;5069526;28;20078;-73
2022/08/05 05:33:45;;;;;;;5.85;2.83;;;;;;;;;;5063759;28;20336;-74
2022/08/05 05:36:30;;;;;;;8.93;3.38;;;;;;;;;;5067060;28;20032;-75
2022/08/05 05:39:16;;;;;;;10.93;3.20;;;;;;;;;;5065195;28;20059;-78
2022/08/05 05:42:01;;;;;;;7.88;3.22;;;;;;;;;;5065326;28;20507;-60
2022/08/05 05:44:47;;;;;;;4.75;3.13;;;;;;;;;;5071591;28;20395;-60
2022/08/05 05:47:34;;;;;;;7.53;3.50;;;;;;;;;;5071236;28;20052;-64
2022/08/05 05:50:19;;;;;;;9.18;3.58;;;;;;;;;;5070486;28;20115;-61
2022/08/05 05:53:07;;;;;;;7.78;2.90;;;;;;;;;;5070356;28;20073;-60
2022/08/05 05:55:52;;;;;;;8.75;3.70;;;;;;;;;;5064535;28;20220;-65
2022/08/05 05:58:38;;;;;;;6.18;3.20;;;;;;;;;;5061618;28;20032;-71
2022/08/05 06:01:24;;;;;;;8.85;3.10;;;;;;;;;;5063816;28;20036;-74
2022/08/05 06:04:11;;;;;;;11.45;3.40;;;;;;;;;;5062941;28;20052;-73
2022/08/05 06:06:56;;;;;;;12.25;3.65;;;;;;;;;;5062822;28;20028;-74
2022/08/05 06:09:42;;;;;;;7.63;3.13;;;;;;;;;;5062746;28;20029;-71
2022/08/05 06:12:27;;;;;;;6.72;2.92;;;;;;;;;;5064520;28;20029;-73
2022/08/05 06:15:13;;;;;;;8.85;3.10;;;;;;;;;;5070982;28;20468;-74
2022/08/05 06:17:59;;;;;;;10.82;3.38;;;;;;;;;;5065709;28;20039;-80
2022/08/05 06:20:44;;;;;;;6.30;2.83;;;;;;;;;;5068561;28;20071;-79
2022/08/05 06:23:30;;;;;;;7.05;3.28;;;;;;;;;;5061212;28;20047;-79
2022/08/05 06:26:17;;;;;;;5.78;3.40;;;;;;;;;;5067208;28;20483;-80
2022/08/05 06:29:02;;;;;;;7.75;3.22;;;;;;;;;;5067936;28;20024;-79
2022/08/05 06:31:48;;;;;;;11.02;3.30;;;;;;;;;;5072532;28;20064;-79
2022/08/05 06:34:34;;;;;;;4.22;2.40;;;;;;;;;;5068015;28;20013;-75
2022/08/05 06:37:19;;;;;;;8.82;3.05;;;;;;;;;;5070098;28;20052;-72
2022/08/05 06:40:05;;;;;;;4.57;2.60;;;;;;;;;;5070516;28;20021;-73
2022/08/05 06:42:50;;;;;;;7.68;2.75;;;;;;;;;;5071383;28;20024;-72
2022/08/05 06:45:36;;;;;;;6.97;2.88;;;;;;;;;;5068486;28;20020;-73
2022/08/05 06:48:22;;;;;;;6.90;3.38;;;;;;;;;;5069444;28;20109;-72
2022/08/05 06:51:07;;;;;;;8.73;3.03;;;;;;;;;;5069024;28;20111;-72
2022/08/05 06:53:53;;;;;;;8.07;3.13;;;;;;;;;;5069579;28;20434;-76
2022/08/05 06:56:38;;;;;;;7.03;3.25;;;;;;;;;;5058800;28;20146;-78
2022/08/05 06:59:24;;;;;;;7.28;2.97;;;;;;;;;;5061593;28;20123;-79
2022/08/05 07:02:09;;;;;;;5.72;2.83;;;;;;;;;;5064359;28;20032;-79
2022/08/05 07:04:55;;;;;;;5.97;2.22;;;;;;;;;;5068842;28;20431;-81
2022/08/05 07:07:42;;;;;;;5.95;2.50;;;;;;;;;;5075337;28;20048;-80
2022/08/05 07:10:27;;;;;;;5.28;3.03;;;;;;;;;;5061605;28;20051;-80
2022/08/05 07:19:21;;;;;;;3.70;2.70;;;;;;;;;;5070054;28;20043;-72
2022/08/05 07:22:07;;;;;;;6.55;2.72;;;;;;;;;;5060605;28;20108;-73
2022/08/05 07:24:53;;;;;;;5.50;2.50;;;;;;;;;;5064881;28;20039;-77
2022/08/05 07:27:38;;;;;;;3.30;2.17;;;;;;;;;;5063516;28;20029;-73
2022/08/05 07:30:24;;;;;;;3.83;2.03;;;;;;;;;;5065832;28;20025;-73
2022/08/05 07:33:10;;;;;;;3.95;2.08;;;;;;;;;;5061145;28;20090;-74
2022/08/05 07:35:56;;;;;;;3.13;2.33;;;;;;;;;;5069676;28;20029;-73
2022/08/05 07:38:42;;;;;;;4.43;2.47;;;;;;;;;;5060359;28;20082;-74
2022/08/05 07:41:27;;;;;;;6.40;2.20;;;;;;;;;;5066342;28;20099;-74
2022/08/05 07:44:13;;;;;;;9.00;2.55;;;;;;;;;;5070325;28;20054;-74
2022/08/05 07:46:58;;;;;;;5.22;2.10;;;;;;;;;;5066544;28;20350;-73
2022/08/05 07:49:44;;;;;;;3.50;2.30;;;;;;;;;;5029005;28;20037;-78
2022/08/05 07:52:29;;;;;;;6.63;2.95;;;;;;;;;;5046616;28;20428;-72
2022/08/05 07:55:15;;;;;;;4.50;2.20;;;;;;;;;;5041312;28;20499;-73
2022/08/05 07:58:01;;;;;;;2.65;2.05;;;;;;;;;;5042882;28;20037;-73
2022/08/05 08:00:46;;;;;;;4.15;2.20;;;;;;;;;;5041210;28;20484;-73
2022/08/05 08:03:32;;;;;;;5.65;2.03;;;;;;;;;;5046631;28;20451;-72
2022/08/05 08:06:19;;;;;;;3.13;2.00;;;;;;;;;;5034309;28;20031;-76
2022/08/05 08:09:05;;;;;;;3.25;2.05;;;;;;;;;;5049742;28;20025;-75
2022/08/05 08:11:50;;;;;;;5.75;2.78;;;;;;;;;;5048512;28;20021;-72
2022/08/05 08:14:36;;;;;;;2.33;1.55;;;;;;;;;;5046551;28;20045;-73
2022/08/05 08:17:21;;;;;;;3.08;1.92;;;;;;;;;;5048528;28;20025;-72
2022/08/05 08:20:07;;;;;;;5.53;1.70;;;;;;;;;;5045776;28;20322;-73
2022/08/05 08:22:53;;;;;;;2.45;1.50;;;;;;;;;;5044840;28;20029;-73
2022/08/05 08:25:39;;;;;;;5.20;2.33;;;;;;;;;;5029455;28;20021;-74
2022/08/05 08:28:25;;;;;;;6.38;1.90;;;;;;;;;;5029950;28;20527;-75
2022/08/05 08:31:10;;;;;;;5.53;2.20;;;;;;;;;;5039236;28;20028;-74
2022/08/05 08:33:56;;;;;;;3.00;1.60;;;;;;;;;;5046424;28;20026;-77
2022/08/05 08:36:41;;;;;;;2.70;1.65;;;;;;;;;;5045498;28;20029;-77
2022/08/05 08:39:27;;;;;;;2.17;1.63;;;;;;;;;;5049019;28;20037;-76
2022/08/05 08:42:13;;;;;;;2.28;1.70;;;;;;;;;;5032247;28;20021;-76
2022/08/05 08:44:59;;;;;;;2.50;1.60;;;;;;;;;;5041870;28;20028;-75
2022/08/05 08:47:46;;;;;;;3.05;1.63;;;;;;;;;;5049514;28;20036;-80
2022/08/05 08:50:34;;;;;;;3.40;1.67;;;;;;;;;;5064039;28;20016;-78
2022/08/05 08:53:21;;;;;;;2.65;1.58;;;;;;;;;;5062796;28;20150;-81
2022/08/05 08:56:06;;;;;;;5.28;1.70;;;;;;;;;;5063670;28;20120;-79
2022/08/05 08:58:52;;;;;;;1.50;1.40;;;;;;;;;;5063582;28;20475;-78
2022/08/05 09:01:38;;;;;;;1.92;1.65;;;;;;;;;;5062716;28;20016;-75
2022/08/05 09:04:24;;;;;;;1.70;1.58;;;;;;;;;;5066430;28;20020;-79
2022/08/05 09:07:10;;;;;;;4.30;1.75;;;;;;;;;;5065446;28;20025;-79
2022/08/05 09:09:55;;;;;;;2.30;1.60;;;;;;;;;;5055044;28;20112;-77
2022/08/05 09:12:41;;;;;;;4.88;1.70;;;;;;;;;;5059942;28;20017;-83
2022/08/05 09:15:27;;;;;;;3.08;1.75;;;;;;;;;;5053924;28;20052;-79
2022/08/05 09:18:12;;;;;;;3.20;1.27;;;;;;;;;;5068250;28;20044;-79
2022/08/05 09:20:58;;;;;;;3.92;1.67;;;;;;;;;;5067020;28;20024;-76
2022/08/05 09:23:44;;;;;;;2.08;1.58;;;;;;;;;;5086921;22;20048;-67
2022/08/05 09:26:30;;;;;;;1.42;1.17;;;;;;;;;;5058252;28;20036;-68
2022/08/05 09:29:15;;;;;;;4.55;2.28;;;;;;;;;;5070698;28;20039;-69
2022/08/05 09:32:05;;;;;;;7.30;2.00;;;;;;;;;;5071870;28;20029;-69
2022/08/05 09:34:53;;;;;;;2.13;1.67;;;;;;;;;;5070647;28;20028;-68
2022/08/05 09:37:52;;;;;;;2.17;1.52;;;;;;;;;;5056925;28;20376;-68
2022/08/05 09:40:42;;;;;;;3.03;1.35;;;;;;;;;;5070175;28;20031;-79
2022/08/05 09:43:30;;;;;;;2.28;1.73;;;;;;;;;;5080361;28;20071;-76
2022/08/05 09:46:23;;;;;;;5.53;1.90;;;;;;;;;;5056347;28;20033;-75
2022/08/05 09:49:21;;;;;;;2.33;1.67;;;;;;;;;;5067020;28;20106;-75
2022/08/05 09:52:26;;;;;;;2.10;1.45;;;;;;;;;;5069973;28;20035;-74
2022/08/05 09:55:12;;;;;;;3.40;1.42;;;;;;;;;;5067283;28;20032;-77
2022/08/05 09:57:57;;;;;;;3.65;1.70;;;;;;;;;;5062994;28;20032;-67
2022/08/05 10:01:01;;;;;;;1.80;1.63;;;;;;;;;;5070242;28;20083;-74
2022/08/05 10:03:54;;;;;;;2.50;1.48;;;;;;;;;;5071746;28;20387;-74
2022/08/05 10:06:41;;;;;;;2.33;1.50;;;;;;;;;;5048187;28;20426;-74
2022/08/05 10:09:26;;;;;;;4.00;1.90;;;;;;;;;;5066922;28;20029;-74
2022/08/05 10:12:12;;;;;;;2.45;1.70;;;;;;;;;;5064052;28;20032;-74
2022/08/05 10:15:14;;;;;;;3.97;1.52;;;;;;;;;;5075437;28;20024;-74
2022/08/05 10:18:02;;;;;;;2.35;1.50;;;;;;;;;;5057335;28;20041;-71
2022/08/05 10:20:48;;;;;;;;;;;;;;;;;;5060587;28;20103;-77
2022/08/05 10:23:35;;;;;;;2.92;1.95;;;;;;;;;;5071203;28;19917;-79
2022/08/05 10:26:20;;;;;;;2.35;1.48;;;;;;;;;;5070700;28;20033;-79
2022/08/05 10:29:06;;;;;;;3.55;1.75;;;;;;;;;;5082383;28;20020;-79
2022/08/05 10:31:52;;;;;;;4.80;1.50;;;;;;;;;;5070904;28;20107;-78
2022/08/05 10:34:38;;;;;;;4.82;1.60;;;;;;;;;;5073135;28;20025;-68
2022/08/05 10:37:24;;;;;;;3.33;1.70;;;;;;;;;;5073747;28;20024;-71
2022/08/05 10:40:33;;;;;;;2.00;1.45;;;;;;;;;;5073833;28;20021;-72
2022/08/05 10:43:22;;;;;;;4.70;1.65;;;;;;;;;;5072735;28;20016;-71
2022/08/05 10:46:07;;;;;;;;;;;;;;;;;;5073167;28;20033;-71
2022/08/05 10:48:58;;;;;;;2.65;1.67;;;;;;;;;;5076119;28;19921;-71
2022/08/05 10:51:48;;;;;;;2.88;1.25;;;;;;;;;;5065925;28;20494;-69
2022/08/05 10:54:46;;;;;;;2.70;1.95;;;;;;;;;;5070514;28;20040;-73
2022/08/05 10:57:32;;;;;;;2.55;1.85;;;;;;;;;;5064304;28;20035;-76
2022/08/05 11:00:20;;;;;;;2.08;1.27;;;;;;;;;;5078215;28;20040;-75
2022/08/05 11:03:06;;;;;;;2.58;1.35;;;;;;;;;;5069965;28;20029;-76
2022/08/05 11:06:08;;;;;;;2.08;1.75;;;;;;;;;;5060716;28;20032;-76
2022/08/05 11:09:16;;;;;;;6.38;2.08;;;;;;;;;;5070497;28;20030;-75
2022/08/05 11:12:02;;;;;;;1.88;1.63;;;;;;;;;;5074456;28;20479;-71
2022/08/05 11:14:47;;;;;;;2.65;1.52;;;;;;;;;;5074439;28;20025;-74
2022/08/05 11:17:37;;;;;;;3.42;1.52;;;;;;;;;;5071654;28;20074;-74
2022/08/05 11:20:36;;;;;;;2.45;1.52;;;;;;;;;;5061182;28;20028;-73
2022/08/05 11:23:25;;;;;;;2.88;1.70;;;;;;;;;;5076073;28;20064;-76
2022/08/05 11:26:10;;;;;;;;;;;;;;;;;;5067416;28;20028;-74
2022/08/05 11:28:56;;;;;;;2.83;1.90;;;;;;;;;;5071805;28;20003;-73
2022/08/05 11:31:42;;;;;;;4.13;2.00;;;;;;;;;;5070846;28;20032;-78
2022/08/05 11:34:38;;;;;;;1.92;1.60;;;;;;;;;;5073221;28;20055;-78
2022/08/05 11:37:40;;;;;;;4.10;1.80;;;;;;;;;;5077687;28;20020;-76
2022/08/05 11:40:52;;;;;;;3.38;1.90;;;;;;;;;;5072501;28;20020;-77
2022/08/05 11:43:37;;;;;;;3.38;1.98;;;;;;;;;;5071987;28;20044;-76
2022/08/05 11:46:27;;;;;;;5.30;2.00;;;;;;;;;;5070925;28;20029;-75
2022/08/05 11:49:13;;;;;;;2.00;1.67;;;;;;;;;;5072397;28;20012;-67
2022/08/05 11:51:59;;;;;;;5.47;1.85;;;;;;;;;;5073775;28;20028;-77
2022/08/05 11:54:49;;;;;;;3.30;1.85;;;;;;;;;;5070829;28;20017;-78
2022/08/05 11:57:35;;;;;;;6.78;2.08;;;;;;;;;;5074447;28;20023;-77
2022/08/05 12:00:30;;;;;;;2.38;1.75;;;;;;;;;;5071874;28;20032;-76
2022/08/05 12:03:17;;;;;;;4.25;1.83;;;;;;;;;;5071759;28;20049;-77
2022/08/05 12:06:03;;;;;;;1.63;1.52;;;;;;;;;;5071555;28;20056;-74
2022/08/05 12:08:50;;;;;;;4.97;1.58;;;;;;;;;;5067714;28;20032;-75
2022/08/05 12:11:37;;;;;;;8.13;1.73;;;;;;;;;;5067631;28;20035;-76
2022/08/05 12:14:24;;;;;;;3.95;1.58;;;;;;;;;;5061996;28;20032;-76
2022/08/05 12:17:10;;;;;;;3.03;1.77;;;;;;;;;;5074326;28;20471;-76
2022/08/05 12:19:56;;;;;;;3.97;2.00;;;;;;;;;;5073273;28;20414;-76
2022/08/05 12:22:42;;;;;;;4.03;2.00;;;;;;;;;;5066147;28;20472;-75
2022/08/05 12:25:27;;;;;;;2.22;1.80;;;;;;;;;;5070424;28;20037;-76
2022/08/05 12:28:28;;;;;;;4.13;1.70;;;;;;;;;;5076139;28;20028;-76
2022/08/05 12:31:15;;;;;;;3.47;1.75;;;;;;;;;;5064241;28;20025;-76
2022/08/05 12:34:01;;;;;;;2.65;1.70;;;;;;;;;;5052532;28;20028;-77
2022/08/05 12:36:47;;;;;;;2.13;1.75;;;;;;;;;;5069133;28;20458;-78
2022/08/05 12:39:33;;;;;;;4.65;1.73;;;;;;;;;;5066660;28;20033;-78
2022/08/05 12:42:19;;;;;;;3.53;2.00;;;;;;;;;;5070987;28;20016;-78
2022/08/05 12:45:06;;;;;;;4.78;2.08;;;;;;;;;;5078233;28;20483;-77
2022/08/05 12:47:52;;;;;;;5.15;1.92;;;;;;;;;;5071217;28;20024;-71
2022/08/05 12:50:37;;;;;;;4.65;2.47;;;;;;;;;;5072020;28;20020;-72
2022/08/05 12:53:27;;;;;;;4.45;2.00;;;;;;;;;;5068134;28;20115;-72
2022/08/05 12:56:17;;;;;;;3.65;1.95;;;;;;;;;;5056763;28;20531;-73
2022/08/05 12:59:20;;;;;;;7.70;2.00;;;;;;;;;;5070587;28;20072;-73
2022/08/05 13:02:06;;;;;;;4.07;2.40;;;;;;;;;;5075758;28;20483;-66
2022/08/05 13:04:52;;;;;;;4.97;2.30;;;;;;;;;;5070206;28;20115;-74
2022/08/05 13:07:38;;;;;;;4.38;1.80;;;;;;;;;;5068157;28;20480;-74
2022/08/05 13:10:24;;;;;;;4.38;2.33;;;;;;;;;;5070276;28;20017;-73
2022/08/05 13:13:09;;;;;;;3.17;2.10;;;;;;;;;;5065590;28;20077;-75
2022/08/05 13:15:55;;;;;;;3.13;2.20;;;;;;;;;;5064132;28;20064;-73
2022/08/05 13:18:49;;;;;;;3.88;2.05;;;;;;;;;;5062063;28;20035;-74
2022/08/05 13:21:35;;;;;;;4.20;2.17;;;;;;;;;;5074779;28;20024;-67
2022/08/05 13:24:22;;;;;;;10.05;2.95;;;;;;;;;;5072045;28;20408;-79
2022/08/05 13:27:07;;;;;;;6.63;2.85;;;;;;;;;;5076322;28;20013;-78
2022/08/05 13:29:53;;;;;;;3.30;1.90;;;;;;;;;;5063498;28;20044;-79
2022/08/05 13:32:39;;;;;;;6.25;2.03;;;;;;;;;;5061671;28;20372;-78
2022/08/05 13:35:24;;;;;;;3.92;1.88;;;;;;;;;;5056784;28;20079;-81
2022/08/05 13:38:10;;;;;;;3.00;1.98;;;;;;;;;;5072058;28;20052;-76
2022/08/05 13:40:55;;;;;;;2.25;1.98;;;;;;;;;;5063772;28;20060;-78
2022/08/05 13:43:43;;;;;;;2.85;1.70;;;;;;;;;;5068522;28;20029;-78
2022/08/05 13:46:29;;;;;;;2.57;1.80;;;;;;;;;;5069339;28;20024;-78
2022/08/05 13:49:15;;;;;;;3.58;2.20;;;;;;;;;;5067623;28;20021;-78
2022/08/05 13:52:10;;;;;;;6.03;2.10;;;;;;;;;;5056914;28;20082;-79
2022/08/05 13:54:56;;;;;;;4.82;2.00;;;;;;;;;;5073400;28;20535;-79
2022/08/05 13:57:42;;;;;;;2.53;2.00;;;;;;;;;;5072597;28;20029;-79
2022/08/05 14:00:27;;;;;;;2.47;2.20;;;;;;;;;;5073849;28;20051;-70
2022/08/05 14:03:13;;;;;;;4.28;1.90;;;;;;;;;;5068111;28;20100;-70
2022/08/05 14:05:58;;;;;;;2.80;1.90;;;;;;;;;;5081516;28;20113;-70
2022/08/05 14:08:44;;;;;;;3.38;2.20;;;;;;;;;;5063033;28;20024;-71
2022/08/05 14:11:29;;;;;;;5.63;2.50;;;;;;;;;;5068977;28;20074;-71
2022/08/05 14:14:15;;;;;;;4.68;2.92;;;;;;;;;;5059664;28;20187;-71
2022/08/05 14:17:01;;;;;;;3.40;2.40;;;;;;;;;;5084497;28;20033;-77
2022/08/05 14:19:46;;;;;;;3.55;1.90;;;;;;;;;;5071723;28;20123;-79
2022/08/05 14:22:32;;;;;;;4.20;2.38;;;;;;;;;;5069214;28;20032;-80
2022/08/05 14:25:20;;;;;;;4.32;1.95;;;;;;;;;;5073524;28;20062;-80
2022/08/05 14:28:06;;;;;;;3.75;2.25;;;;;;;;;;5071337;28;20079;-79
2022/08/05 14:30:51;;;;;;;2.80;1.95;;;;;;;;;;5075046;28;20043;-80
2022/08/05 14:33:37;;;;;;;4.05;1.98;;;;;;;;;;5073370;28;20024;-78
2022/08/05 14:36:22;;;;;;;2.65;2.00;;;;;;;;;;5079132;28;20020;-68
2022/08/05 14:39:08;;;;;;;2.90;1.73;;;;;;;;;;5072107;28;20063;-68
2022/08/05 14:41:54;;;;;;;3.25;2.03;;;;;;;;;;5071374;28;20123;-70
2022/08/05 14:44:39;;;;;;;4.75;1.70;;;;;;;;;;5073241;28;20031;-69
2022/08/05 14:47:25;;;;;;;2.90;2.10;;;;;;;;;;5072465;28;20490;-68
2022/08/05 14:50:11;;;;;;;2.42;1.92;;;;;;;;;;5073570;28;20717;-68
2022/08/05 14:52:57;;;;;;;4.10;1.98;;;;;;;;;;5070798;28;20520;-80
2022/08/05 14:55:43;;;;;;;5.07;2.17;;;;;;;;;;5068809;28;20031;-75
2022/08/05 14:58:29;;;;;;;2.30;2.10;;;;;;;;;;5085903;28;20032;-75
2022/08/05 15:01:14;;;;;;;3.25;2.08;;;;;;;;;;5071654;28;20031;-74
2022/08/05 15:04:00;;;;;;;4.65;2.50;;;;;;;;;;5060451;28;20395;-74
2022/08/05 15:06:45;;;;;;;4.55;2.00;;;;;;;;;;5066396;28;20033;-73
2022/08/05 15:09:31;;;;;;;3.53;2.30;;;;;;;;;;5070433;28;20040;-74
2022/08/05 15:12:17;;;;;;;4.68;2.28;;;;;;;;;;5066468;28;20025;-73
2022/08/05 15:15:02;;;;;;;17.02;3.10;;;;;;;;;;5071620;28;20024;-67
2022/08/05 15:17:48;;;;;;;15.05;4.93;;;;;;;;;;5074176;28;20031;-69
2022/08/05 15:20:34;;;;;;;14.68;4.75;;;;;;;;;;5072283;28;20028;-68
2022/08/05 15:23:20;;;;;;;11.85;4.70;;;;;;;;;;5071622;28;20025;-67
2022/08/05 15:26:05;;;;;;;11.25;4.20;;;;;;;;;;5072497;28;20032;-66
2022/08/05 15:28:51;;;;;;;10.48;4.65;;;;;;;;;;5078746;28;20076;-72
2022/08/05 15:31:36;;;;;;;9.98;3.80;;;;;;;;;;5073204;28;20094;-74
2022/08/05 15:34:22;;;;;;;7.38;3.67;;;;;;;;;;5072052;28;20024;-75
2022/08/05 15:37:08;;;;;;;5.72;3.35;;;;;;;;;;5072585;28;20107;-75
2022/08/05 15:39:55;;;;;;;8.73;4.10;;;;;;;;;;5071597;28;20467;-74
2022/08/05 15:42:41;;;;;;;6.47;3.63;;;;;;;;;;5060217;28;20028;-73
2022/08/05 15:45:27;;;;;;;4.95;3.47;;;;;;;;;;5071091;28;20074;-74
2022/08/05 15:48:13;;;;;;;8.05;3.95;;;;;;;;;;5073057;28;20029;-76
2022/08/05 15:50:59;;;;;;;4.63;3.30;;;;;;;;;;5071860;28;20085;-69
2022/08/05 15:53:44;;;;;;;5.63;3.08;;;;;;;;;;5073529;28;20107;-69
2022/08/05 15:56:30;;;;;;;8.13;3.47;;;;;;;;;;5069783;28;20539;-71
2022/08/05 15:59:15;;;;;;;5.97;3.00;;;;;;;;;;5074343;28;20036;-70
2022/08/05 16:02:01;;;;;;;5.55;3.45;;;;;;;;;;5072158;28;20032;-69
2022/08/05 16:04:47;;;;;;;5.78;3.22;;;;;;;;;;5064894;28;20074;-72
2022/08/05 16:07:32;;;;;;;5.28;3.22;;;;;;;;;;5073515;28;20023;-67
2022/08/05 16:10:18;;;;;;;4.57;3.22;;;;;;;;;;5070084;28;20056;-79
2022/08/05 16:13:04;;;;;;;8.95;3.22;;;;;;;;;;5067560;28;20066;-79
2022/08/05 16:15:50;;;;;;;5.53;3.58;;;;;;;;;;5061116;28;20060;-80
2022/08/05 16:18:36;;;;;;;5.05;3.53;;;;;;;;;;5070834;28;20036;-78
2022/08/05 16:21:22;;;;;;;4.68;3.10;;;;;;;;;;5069500;28;20019;-79
2022/08/05 16:24:07;;;;;;;5.28;3.33;;;;;;;;;;5063267;28;20058;-68
2022/08/05 16:26:54;;;;;;;3.78;3.10;;;;;;;;;;5069998;28;20091;-68
2022/08/05 16:29:40;;;;;;;7.53;3.60;;;;;;;;;;5073042;28;20111;-67
2022/08/05 16:32:26;;;;;;;5.75;2.80;;;;;;;;;;5075283;28;20043;-67
2022/08/05 16:35:11;;;;;;;8.23;2.90;;;;;;;;;;5071865;28;20444;-67
2022/08/05 16:37:57;;;;;;;4.15;2.78;;;;;;;;;;5069446;28;20154;-68
2022/08/05 16:40:43;;;;;;;3.67;2.55;;;;;;;;;;5070483;28;20099;-69
2022/08/05 16:43:29;;;;;;;3.67;2.70;;;;;;;;;;5071920;28;20020;-67
2022/08/05 16:46:15;;;;;;;4.25;3.15;;;;;;;;;;5070901;28;20017;-70
2022/08/05 16:49:01;;;;;;;4.15;3.13;;;;;;;;;;5071316;28;20174;-71